Merlin 3 — J8B3054 — position and weather

sailwx.info

Track history (hours):
 
Tides and Currents Weather Stations Pressure Air Temp Water Temp Dewpoint Dewpoint Depression Visibility Wind Speed Wind Dir Waves Ship Positions

Merlin 3

Last reported at 2018-Feb-21 06:29 UTC. Time now 2018-Feb-24 08:16 UTC.
Position S 05°13' E 011°38'.

Length 50 m; draft 2 m.

Type: Cargo ship. MMSI: 377773000.

Date/timePositionNaut miles runAvg speedWind from/ knotsBaromVisibWave heightAir tempDewpointWater temp
2018-Feb-21 06:29S 05°13' E 011°38'4 8.7
2018-Feb-21 05:58S 05°10' E 011°35'5 8.4
2018-Feb-21 05:24S 05°08' E 011°31'3 8.7
2018-Feb-21 05:00S 05°08' E 011°27'4 8.5
2018-Feb-21 04:29S 05°07' E 011°23'4 8.5
2018-Feb-21 03:59S 05°06' E 011°19'4 8.3
2018-Feb-21 03:28S 05°05' E 011°15'4 1.8
2018-Feb-21 01:04S 05°02' E 011°17'0 2.4
2018-Feb-21 00:53S 05°01' E 011°18'1 2.1
2018-Feb-21 00:22S 05°01' E 011°19'1 2.6
2018-Feb-20 23:59S 05°00' E 011°19'2 2.9
2018-Feb-20 23:11S 04°59' E 011°21'1 3.5
2018-Feb-20 22:57S 04°59' E 011°22'  
2018-Feb-18 15:51S 05°04' E 011°36'3 9.7
2018-Feb-18 15:29S 05°08' E 011°36'5 9.3
2018-Feb-18 14:59S 05°12' E 011°38'5 9.8
2018-Feb-18 14:30S 05°16' E 011°41'610.0
2018-Feb-18 13:56S 05°20' E 011°44'  
Track history (hours):
 
Tides and Currents Weather Stations Pressure Air Temp Water Temp Dewpoint Dewpoint Depression Visibility Wind Speed Wind Dir Waves Ship Positions

Merlin 3

Last reported at 2018-Feb-21 06:29 UTC. Time now 2018-Feb-24 08:16 UTC.
Position S 05°13' E 011°38'.

Length 50 m; draft 2 m.

Type: Cargo ship. MMSI: 377773000.

Date/timePositionNaut miles runAvg speedWind from/ knotsBaromVisibWave heightAir tempDewpointWater temp
2018-Feb-21 06:29S 05°13' E 011°38'4 8.7
2018-Feb-21 05:58S 05°10' E 011°35'5 8.4
2018-Feb-21 05:24S 05°08' E 011°31'3 8.7
2018-Feb-21 05:00S 05°08' E 011°27'4 8.5
2018-Feb-21 04:29S 05°07' E 011°23'4 8.5
2018-Feb-21 03:59S 05°06' E 011°19'4 8.3
2018-Feb-21 03:28S 05°05' E 011°15'4 1.8
2018-Feb-21 01:04S 05°02' E 011°17'0 2.4
2018-Feb-21 00:53S 05°01' E 011°18'1 2.1
2018-Feb-21 00:22S 05°01' E 011°19'1 2.6
2018-Feb-20 23:59S 05°00' E 011°19'2 2.9
2018-Feb-20 23:11S 04°59' E 011°21'1 3.5
2018-Feb-20 22:57S 04°59' E 011°22'  
2018-Feb-18 15:51S 05°04' E 011°36'3 9.7
2018-Feb-18 15:29S 05°08' E 011°36'5 9.3
2018-Feb-18 14:59S 05°12' E 011°38'5 9.8
2018-Feb-18 14:30S 05°16' E 011°41'610.0
2018-Feb-18 13:56S 05°20' E 011°44'  

Dump ship's entire track history